createdAt,value
2022-12-03T00:01:02.120Z,100.00
2022-12-03T00:03:30.704Z,99.64
2022-12-03T00:06:00.694Z,100.00
2022-12-03T00:08:29.179Z,100.00
2022-12-03T00:10:57.700Z,99.47
2022-12-03T00:13:26.226Z,100.00
2022-12-03T00:15:54.790Z,100.00
2022-12-03T00:18:23.576Z,98.94
2022-12-03T00:20:52.047Z,98.81
2022-12-03T00:23:21.914Z,98.42
2022-12-03T00:25:50.730Z,98.65
2022-12-03T00:28:19.199Z,99.19
2022-12-03T00:30:47.696Z,98.39
2022-12-03T00:33:16.215Z,98.30
2022-12-03T00:35:44.690Z,97.99
2022-12-03T00:38:13.344Z,97.90
2022-12-03T00:40:43.303Z,97.30
2022-12-03T00:43:11.791Z,98.03
2022-12-03T00:45:40.382Z,98.06
2022-12-03T00:48:08.903Z,98.19
2022-12-03T00:50:37.483Z,97.71
2022-12-03T00:53:05.951Z,98.46
2022-12-03T00:55:34.426Z,98.04
2022-12-03T00:58:04.318Z,97.95
2022-12-03T01:00:32.798Z,97.75
2022-12-03T01:03:01.674Z,97.68
2022-12-03T01:05:30.171Z,97.72
2022-12-03T01:07:58.689Z,98.17
2022-12-03T01:10:27.422Z,98.57
2022-12-03T01:12:55.948Z,97.96
2022-12-03T01:15:25.906Z,97.50
2022-12-03T01:17:55.099Z,97.44
2022-12-03T01:20:23.607Z,97.33
2022-12-03T01:22:52.135Z,98.43
2022-12-03T01:25:20.652Z,97.87
2022-12-03T01:27:49.228Z,98.44
2022-12-03T01:30:17.795Z,98.28
2022-12-03T01:32:46.637Z,98.60
2022-12-03T01:35:15.242Z,98.63
2022-12-03T01:37:43.710Z,99.07
2022-12-03T01:40:16.949Z,99.32
2022-12-03T01:42:45.566Z,99.25
2022-12-03T01:45:22.716Z,99.02
2022-12-03T01:47:52.799Z,98.93
2022-12-03T01:50:28.032Z,98.64
2022-12-03T01:52:59.554Z,98.99
2022-12-03T01:55:28.309Z,99.17
2022-12-03T01:58:00.069Z,98.63
2022-12-03T02:00:29.786Z,98.70
2022-12-03T02:03:02.417Z,98.78
2022-12-03T02:05:32.793Z,98.66
2022-12-03T02:08:02.037Z,97.77
2022-12-03T02:10:34.951Z,97.75
2022-12-03T02:13:06.298Z,97.86
2022-12-03T02:15:35.599Z,98.12
2022-12-03T02:18:05.772Z,97.67
2022-12-03T02:20:40.454Z,98.44
2022-12-03T02:23:14.746Z,98.25
2022-12-03T02:25:44.784Z,98.37
2022-12-03T02:28:13.324Z,98.25
2022-12-03T02:30:41.802Z,97.92
2022-12-03T02:33:10.329Z,97.80
2022-12-03T02:35:40.206Z,97.36
2022-12-03T02:38:13.967Z,97.61
2022-12-03T02:40:45.262Z,97.48
2022-12-03T02:43:16.688Z,96.45
2022-12-03T02:45:48.687Z,97.67
2022-12-03T02:48:20.900Z,96.92
2022-12-03T02:50:52.759Z,97.10
2022-12-03T02:53:25.030Z,97.74
2022-12-03T02:55:57.042Z,98.14
2022-12-03T02:58:27.344Z,98.80
2022-12-03T03:00:56.727Z,98.23
2022-12-03T03:03:28.514Z,98.72
2022-12-03T03:05:57.866Z,98.00
2022-12-03T03:08:27.023Z,97.79
2022-12-03T03:10:57.916Z,97.40
2022-12-03T03:13:26.754Z,97.98
2022-12-03T03:15:55.424Z,98.96
2022-12-03T03:18:24.222Z,98.76
2022-12-03T03:20:52.776Z,98.54
2022-12-03T03:23:23.105Z,98.59
2022-12-03T03:25:58.091Z,98.08
2022-12-03T03:28:27.568Z,98.74
2022-12-03T03:30:56.780Z,98.83
2022-12-03T03:33:25.825Z,98.63
2022-12-03T03:35:54.919Z,98.39
2022-12-03T03:38:24.979Z,98.09
2022-12-03T03:40:54.658Z,98.16
2022-12-03T03:43:26.240Z,97.90
2022-12-03T03:45:55.665Z,98.33
2022-12-03T03:48:24.348Z,98.11
2022-12-03T03:50:53.428Z,97.70
2022-12-03T03:53:23.102Z,97.30
2022-12-03T03:55:52.388Z,97.70
2022-12-03T03:58:21.034Z,97.26
2022-12-03T04:00:51.018Z,96.44
2022-12-03T04:03:19.569Z,96.54
2022-12-03T04:05:51.036Z,96.53
2022-12-03T04:08:19.618Z,96.96
2022-12-03T04:11:05.608Z,97.14
2022-12-03T04:13:34.143Z,97.97
2022-12-03T04:16:04.084Z,98.06
2022-12-03T04:18:46.474Z,98.72
2022-12-03T04:21:34.723Z,98.21
2022-12-03T04:24:03.813Z,97.29
2022-12-03T04:26:50.470Z,97.24
2022-12-03T04:29:19.223Z,96.82
2022-12-03T04:32:06.754Z,97.57
2022-12-03T04:34:57.692Z,97.95
2022-12-03T04:37:26.240Z,98.19
2022-12-03T04:39:54.796Z,98.19
2022-12-03T04:42:23.383Z,97.98
2022-12-03T04:44:52.395Z,97.90
2022-12-03T04:47:23.112Z,98.38
2022-12-03T04:49:52.858Z,98.08
2022-12-03T04:52:22.180Z,97.91
2022-12-03T04:54:50.717Z,97.05
2022-12-03T04:57:19.223Z,98.20
2022-12-03T04:59:47.789Z,98.51
2022-12-03T05:02:16.383Z,98.59
2022-12-03T05:04:46.391Z,98.95
2022-12-03T05:07:14.907Z,98.99
2022-12-03T05:09:43.894Z,99.07
2022-12-03T05:12:12.515Z,99.76
2022-12-03T05:14:41.012Z,100.00
2022-12-03T05:17:09.564Z,100.00
2022-12-03T05:19:55.801Z,100.00
2022-12-03T05:22:25.712Z,100.00
2022-12-03T05:24:54.446Z,100.00
2022-12-03T05:27:24.094Z,100.00
2022-12-03T05:29:52.973Z,100.00
2022-12-03T05:32:21.847Z,100.00
2022-12-03T05:34:50.429Z,100.00
2022-12-03T05:37:18.977Z,100.00
2022-12-03T05:39:48.845Z,100.00
2022-12-03T05:42:34.898Z,100.00
2022-12-03T05:45:03.401Z,100.00
2022-12-03T05:47:31.918Z,100.00
2022-12-03T05:50:00.507Z,100.00
2022-12-03T05:52:29.016Z,100.00
2022-12-03T05:54:58.875Z,100.00
2022-12-03T05:57:27.388Z,100.00
2022-12-03T05:59:55.891Z,100.00
2022-12-03T06:02:24.643Z,100.00
2022-12-03T06:04:53.649Z,100.00
2022-12-03T06:07:22.384Z,100.00
2022-12-03T06:09:51.088Z,100.00
2022-12-03T06:12:20.940Z,100.00
2022-12-03T06:14:49.440Z,100.00
2022-12-03T06:17:18.038Z,100.00
2022-12-03T06:19:46.503Z,100.00
2022-12-03T06:22:15.019Z,100.00
2022-12-03T06:24:43.729Z,100.00
2022-12-03T06:27:12.296Z,100.00
2022-12-03T06:29:42.172Z,100.00
2022-12-03T06:32:11.031Z,100.00
2022-12-03T06:34:40.080Z,100.00
2022-12-03T06:37:08.558Z,100.00
2022-12-03T06:39:37.072Z,100.00
2022-12-03T06:42:05.691Z,100.00
2022-12-03T06:44:34.195Z,100.00
2022-12-03T06:47:04.140Z,100.00
2022-12-03T06:49:32.696Z,100.00
2022-12-03T06:52:01.366Z,100.00
2022-12-03T06:54:29.878Z,100.00
2022-12-03T06:56:58.365Z,100.00
2022-12-03T06:59:27.019Z,100.00
2022-12-03T07:01:55.530Z,100.00
2022-12-03T07:04:25.455Z,100.00
2022-12-03T07:06:53.983Z,100.00
2022-12-03T07:09:22.481Z,100.00
2022-12-03T07:11:50.997Z,100.00
2022-12-03T07:14:19.542Z,100.00
2022-12-03T07:16:48.155Z,100.00
2022-12-03T07:19:17.015Z,100.00
2022-12-03T07:21:46.881Z,100.00
2022-12-03T07:24:15.432Z,100.00
2022-12-03T07:26:43.992Z,100.00
2022-12-03T07:29:13.059Z,100.00
2022-12-03T07:31:41.689Z,100.00
2022-12-03T07:34:10.274Z,100.00
2022-12-03T07:36:38.797Z,100.00
2022-12-03T07:39:08.708Z,100.00
2022-12-03T07:41:37.204Z,100.00
2022-12-03T07:44:12.408Z,100.00
2022-12-03T07:46:42.996Z,100.00
2022-12-03T07:49:12.462Z,100.00
2022-12-03T07:51:41.124Z,100.00
2022-12-03T07:54:11.015Z,100.00
2022-12-03T07:56:39.569Z,100.00
2022-12-03T07:59:08.502Z,100.00
2022-12-03T08:01:37.063Z,100.00
2022-12-03T08:04:06.028Z,100.00
2022-12-03T08:06:34.498Z,100.00
2022-12-03T08:09:02.984Z,100.00
2022-12-03T08:11:34.331Z,100.00
2022-12-03T08:14:08.592Z,100.00
2022-12-03T08:16:40.433Z,100.00
2022-12-03T08:19:11.163Z,100.00
2022-12-03T08:21:40.131Z,100.00
2022-12-03T08:24:15.821Z,100.00
2022-12-03T08:26:46.996Z,100.00
2022-12-03T08:29:17.805Z,100.00
2022-12-03T08:31:49.284Z,100.00
2022-12-03T08:34:20.090Z,100.00
2022-12-03T08:36:50.552Z,100.00
2022-12-03T08:39:30.836Z,100.00
2022-12-03T08:42:28.002Z,100.00
2022-12-03T08:44:57.030Z,100.00
2022-12-03T08:47:25.900Z,100.00
2022-12-03T08:49:58.300Z,100.00
2022-12-03T08:52:32.904Z,100.00
2022-12-03T08:55:04.102Z,100.00
2022-12-03T08:57:35.903Z,100.00
2022-12-03T09:00:16.553Z,100.00
2022-12-03T09:02:48.816Z,100.00
2022-12-03T09:05:20.661Z,100.00
2022-12-03T09:07:49.582Z,100.00
2022-12-03T09:10:18.356Z,100.00
2022-12-03T09:12:48.703Z,100.00
2022-12-03T09:15:17.409Z,100.00
2022-12-03T09:17:46.021Z,100.00
2022-12-03T09:20:15.249Z,100.00
2022-12-03T09:22:43.777Z,100.00
2022-12-03T09:25:17.763Z,100.00
2022-12-03T09:27:46.312Z,100.00
2022-12-03T09:30:17.009Z,100.00
2022-12-03T09:32:45.524Z,100.00
2022-12-03T09:35:14.023Z,100.00
2022-12-03T09:37:42.636Z,100.00
2022-12-03T09:40:12.554Z,100.00
2022-12-03T09:42:41.268Z,100.00
2022-12-03T09:45:13.187Z,100.00
2022-12-03T09:47:45.963Z,100.00
2022-12-03T09:50:16.247Z,100.00
2022-12-03T09:52:45.492Z,100.00
2022-12-03T09:55:19.487Z,100.00
2022-12-03T09:57:48.052Z,100.00
2022-12-03T10:00:19.000Z,100.00
2022-12-03T10:02:50.590Z,100.00
2022-12-03T10:05:21.352Z,100.00
2022-12-03T10:07:51.612Z,100.00
2022-12-03T10:10:25.222Z,100.00
2022-12-03T10:12:54.934Z,100.00
2022-12-03T10:15:24.658Z,100.00
2022-12-03T10:17:56.069Z,100.00
2022-12-03T10:20:26.585Z,100.00
2022-12-03T10:22:55.870Z,100.00
2022-12-03T10:25:24.694Z,100.00
2022-12-03T10:27:59.408Z,100.00
2022-12-03T10:30:29.467Z,100.00
2022-12-03T10:33:02.759Z,100.00
2022-12-03T10:35:39.074Z,100.00
2022-12-03T10:38:09.471Z,100.00
2022-12-03T10:40:39.661Z,100.00
2022-12-03T10:43:16.242Z,100.00
2022-12-03T10:45:45.901Z,100.00
2022-12-03T10:48:17.875Z,100.00
2022-12-03T10:50:51.922Z,100.00
2022-12-03T10:53:22.348Z,100.00
2022-12-03T10:55:58.762Z,100.00
2022-12-03T10:58:31.552Z,100.00
2022-12-03T11:01:03.459Z,100.00
2022-12-03T11:03:36.960Z,100.00
2022-12-03T11:06:06.111Z,100.00
2022-12-03T11:08:36.829Z,100.00
2022-12-03T11:11:08.534Z,100.00
2022-12-03T11:13:52.362Z,100.00
2022-12-03T11:17:12.401Z,100.00
2022-12-03T11:19:50.245Z,100.00
2022-12-03T11:22:38.929Z,100.00
2022-12-03T11:25:56.102Z,100.00
2022-12-03T11:28:52.796Z,100.00
2022-12-03T11:31:39.812Z,100.00
2022-12-03T11:34:47.897Z,100.00
2022-12-03T11:37:26.012Z,100.00
2022-12-03T11:40:26.398Z,100.00
2022-12-03T11:44:04.136Z,100.00
2022-12-03T11:46:42.795Z,100.00
2022-12-03T11:49:25.779Z,100.00
2022-12-03T11:51:54.542Z,100.00
2022-12-03T11:54:24.784Z,100.00
2022-12-03T11:56:56.184Z,100.00
2022-12-03T11:59:24.697Z,100.00
2022-12-03T12:01:53.192Z,100.00
2022-12-03T12:04:33.605Z,100.00
2022-12-03T12:07:03.275Z,100.00
2022-12-03T12:09:54.309Z,100.00
2022-12-03T12:12:30.645Z,100.00
2022-12-03T12:15:00.216Z,100.00
2022-12-03T12:17:36.404Z,100.00
2022-12-03T12:20:25.903Z,100.00
2022-12-03T12:22:55.869Z,100.00
2022-12-03T12:25:40.692Z,100.00
2022-12-03T12:28:09.723Z,100.00
2022-12-03T12:30:38.210Z,100.00
2022-12-03T12:33:15.779Z,100.00
2022-12-03T12:35:44.299Z,100.00
2022-12-03T12:38:16.722Z,100.00
2022-12-03T12:40:49.347Z,100.00
2022-12-03T12:43:24.959Z,100.00
2022-12-03T12:45:55.964Z,100.00
2022-12-03T12:48:27.598Z,100.00
2022-12-03T12:51:02.208Z,100.00
2022-12-03T12:53:33.076Z,100.00
2022-12-03T12:56:12.369Z,100.00
2022-12-03T12:58:41.555Z,100.00
2022-12-03T13:01:18.253Z,100.00
2022-12-03T13:03:50.643Z,100.00
2022-12-03T13:06:21.471Z,100.00
2022-12-03T13:08:51.359Z,100.00
2022-12-03T13:11:37.014Z,100.00
2022-12-03T13:14:14.344Z,100.00
2022-12-03T13:16:43.423Z,100.00
2022-12-03T13:19:23.063Z,100.00
2022-12-03T13:21:53.580Z,100.00
2022-12-03T13:24:33.876Z,100.00
2022-12-03T13:27:09.808Z,100.00
2022-12-03T13:29:38.471Z,100.00
2022-12-03T13:32:13.225Z,100.00
2022-12-03T13:34:42.742Z,100.00
2022-12-03T13:37:15.357Z,100.00
2022-12-03T13:39:47.897Z,100.00
2022-12-03T13:42:42.302Z,100.00
2022-12-03T13:45:32.925Z,100.00
2022-12-03T13:48:04.027Z,100.00
2022-12-03T13:50:37.193Z,100.00
2022-12-03T13:53:21.163Z,100.00
2022-12-03T13:55:51.330Z,100.00
2022-12-03T13:58:21.346Z,100.00
2022-12-03T14:00:49.982Z,100.00
2022-12-03T14:03:18.739Z,100.00
2022-12-03T14:05:47.283Z,100.00
2022-12-03T14:08:16.199Z,100.00
2022-12-03T14:10:44.829Z,100.00
2022-12-03T14:13:13.419Z,100.00
2022-12-03T14:15:43.412Z,100.00
2022-12-03T14:18:11.904Z,100.00
2022-12-03T14:20:40.466Z,100.00
2022-12-03T14:23:09.042Z,100.00
2022-12-03T14:25:37.588Z,100.00
2022-12-03T14:28:08.678Z,100.00
2022-12-03T14:30:37.521Z,100.00
2022-12-03T14:33:07.756Z,100.00
2022-12-03T14:35:36.326Z,100.00
2022-12-03T14:38:04.885Z,100.00
2022-12-03T14:40:33.470Z,100.00
2022-12-03T14:43:03.327Z,100.00
2022-12-03T14:45:32.060Z,100.00
2022-12-03T14:48:00.712Z,100.00
2022-12-03T14:50:30.607Z,100.00
2022-12-03T14:52:59.156Z,100.00
2022-12-03T14:55:27.812Z,100.00
2022-12-03T14:57:56.487Z,100.00
2022-12-03T15:00:25.315Z,100.00
2022-12-03T15:02:53.981Z,100.00
2022-12-03T15:05:28.323Z,100.00
2022-12-03T15:07:58.815Z,100.00
2022-12-03T15:10:27.448Z,100.00
2022-12-03T15:12:56.096Z,100.00
2022-12-03T15:15:24.724Z,100.00
2022-12-03T15:17:53.275Z,100.00
2022-12-03T15:20:21.796Z,100.00
2022-12-03T15:22:50.489Z,100.00
2022-12-03T15:25:24.579Z,100.00
2022-12-03T15:27:53.099Z,100.00
2022-12-03T15:30:21.811Z,100.00
2022-12-03T15:32:50.557Z,100.00
2022-12-03T15:35:19.232Z,100.00
2022-12-03T15:37:47.735Z,100.00
2022-12-03T15:40:16.483Z,100.00
2022-12-03T15:42:46.427Z,100.00
2022-12-03T15:45:15.578Z,100.00
2022-12-03T15:47:44.551Z,100.00
2022-12-03T15:50:13.559Z,100.00
2022-12-03T15:52:42.104Z,100.00
2022-12-03T15:55:11.249Z,100.00
2022-12-03T15:57:39.812Z,100.00
2022-12-03T16:00:12.478Z,100.00
2022-12-03T16:02:41.476Z,100.00
2022-12-03T16:05:12.696Z,100.00
2022-12-03T16:07:41.559Z,100.00
2022-12-03T16:10:11.981Z,100.00
2022-12-03T16:12:40.489Z,100.00
2022-12-03T16:15:11.123Z,100.00
2022-12-03T16:17:39.636Z,100.00
2022-12-03T16:20:09.326Z,100.00
2022-12-03T16:22:37.850Z,100.00
2022-12-03T16:25:07.697Z,100.00
2022-12-03T16:27:38.004Z,100.00
2022-12-03T16:30:08.852Z,100.00
2022-12-03T16:32:39.399Z,100.00
2022-12-03T16:35:08.328Z,100.00
2022-12-03T16:37:36.905Z,100.00
2022-12-03T16:40:06.186Z,100.00
2022-12-03T16:42:34.691Z,100.00
2022-12-03T16:45:20.464Z,100.00
2022-12-03T16:47:51.056Z,100.00
2022-12-03T16:50:27.556Z,100.00
2022-12-03T16:52:58.227Z,100.00
2022-12-03T16:55:26.763Z,100.00
2022-12-03T16:57:55.669Z,100.00
2022-12-03T17:00:25.901Z,100.00
2022-12-03T17:02:55.984Z,100.00
2022-12-03T17:05:24.589Z,100.00
2022-12-03T17:07:53.252Z,100.00
2022-12-03T17:10:21.913Z,100.00
2022-12-03T17:15:39.234Z,100.00
2022-12-03T17:18:10.227Z,100.00
2022-12-03T17:20:39.087Z,100.00
2022-12-03T17:23:07.663Z,100.00
2022-12-03T17:25:36.455Z,100.00
2022-12-03T17:28:04.991Z,100.00
2022-12-03T17:30:33.510Z,100.00
2022-12-03T17:33:02.143Z,100.00
2022-12-03T17:35:32.056Z,100.00
2022-12-03T17:38:02.540Z,100.00
2022-12-03T17:40:31.196Z,100.00
2022-12-03T17:42:59.670Z,100.00
2022-12-03T17:45:28.205Z,100.00
2022-12-03T17:47:56.748Z,100.00
2022-12-03T17:50:25.223Z,100.00
2022-12-03T17:52:55.191Z,100.00
2022-12-03T17:55:33.579Z,100.00
2022-12-03T17:58:06.151Z,100.00
2022-12-03T18:00:35.126Z,100.00
2022-12-03T18:03:03.816Z,100.00
2022-12-03T18:05:32.356Z,100.00
2022-12-03T18:08:02.442Z,100.00
2022-12-03T18:10:31.042Z,100.00
2022-12-03T18:13:01.975Z,100.00
2022-12-03T18:15:31.282Z,100.00
2022-12-03T18:17:59.917Z,100.00
2022-12-03T18:20:28.653Z,100.00
2022-12-03T18:22:58.811Z,100.00
2022-12-03T18:25:29.031Z,100.00
2022-12-03T18:27:57.846Z,100.00
2022-12-03T18:30:26.538Z,100.00
2022-12-03T18:32:55.109Z,100.00
2022-12-03T18:35:23.809Z,100.00
2022-12-03T18:37:52.836Z,100.00
2022-12-03T18:40:24.630Z,100.00
2022-12-03T18:42:54.726Z,100.00
2022-12-03T18:45:23.267Z,100.00
2022-12-03T18:47:51.816Z,100.00
2022-12-03T18:50:20.435Z,100.00
2022-12-03T18:52:48.925Z,100.00
2022-12-03T18:55:19.719Z,100.00
2022-12-03T18:57:48.260Z,100.00
2022-12-03T19:00:18.905Z,100.00
2022-12-03T19:03:03.121Z,100.00
2022-12-03T19:05:32.779Z,100.00
2022-12-03T19:08:01.601Z,100.00
2022-12-03T19:10:30.253Z,100.00
2022-12-03T19:12:58.800Z,100.00
2022-12-03T19:15:28.781Z,100.00
2022-12-03T19:17:57.344Z,100.00
2022-12-03T19:20:25.911Z,100.00
2022-12-03T19:22:54.420Z,100.00
2022-12-03T19:25:23.046Z,100.00
2022-12-03T19:27:55.065Z,100.00
2022-12-03T19:30:23.765Z,100.00
2022-12-03T19:32:53.726Z,100.00
2022-12-03T19:35:22.564Z,100.00
2022-12-03T19:37:51.383Z,100.00
2022-12-03T19:40:20.063Z,100.00
2022-12-03T19:42:48.623Z,100.00
2022-12-03T19:45:17.337Z,100.00
2022-12-03T19:47:45.826Z,100.00
2022-12-03T19:50:22.713Z,100.00
2022-12-03T19:52:51.968Z,100.00
2022-12-03T19:55:20.714Z,100.00
2022-12-03T19:57:49.669Z,100.00
2022-12-03T20:00:18.635Z,100.00
2022-12-03T20:02:50.134Z,100.00
2022-12-03T20:05:20.206Z,100.00
2022-12-03T20:07:48.809Z,100.00
2022-12-03T20:10:17.660Z,100.00
2022-12-03T20:12:46.500Z,100.00
2022-12-03T20:15:15.416Z,100.00
2022-12-03T20:17:44.151Z,100.00
2022-12-03T20:20:13.363Z,100.00
2022-12-03T20:22:43.548Z,100.00
2022-12-03T20:25:12.255Z,100.00
2022-12-03T20:27:40.826Z,100.00
2022-12-03T20:30:10.357Z,100.00
2022-12-03T20:32:43.725Z,100.00
2022-12-03T20:35:14.007Z,100.00
2022-12-03T20:37:43.938Z,100.00
2022-12-03T20:40:13.033Z,100.00
2022-12-03T20:42:41.531Z,100.00
2022-12-03T20:45:11.203Z,100.00
2022-12-03T20:47:39.754Z,100.00
2022-12-03T20:50:09.172Z,100.00
2022-12-03T20:52:37.880Z,100.00
2022-12-03T20:55:08.498Z,100.00
2022-12-03T20:57:37.450Z,100.00
2022-12-03T21:00:07.256Z,100.00
2022-12-03T21:02:35.824Z,100.00
2022-12-03T21:05:04.620Z,100.00
2022-12-03T21:07:33.351Z,100.00
2022-12-03T21:10:01.961Z,100.00
2022-12-03T21:12:31.891Z,100.00
2022-12-03T21:15:00.448Z,100.00
2022-12-03T21:17:28.995Z,100.00
2022-12-03T21:19:57.739Z,100.00
2022-12-03T21:22:26.396Z,100.00
2022-12-03T21:24:55.058Z,100.00
2022-12-03T21:27:23.596Z,100.00
2022-12-03T21:29:54.233Z,100.00
2022-12-03T21:32:23.034Z,100.00
2022-12-03T21:34:51.594Z,100.00
2022-12-03T21:37:20.066Z,100.00
2022-12-03T21:39:48.606Z,100.00
2022-12-03T21:42:34.749Z,100.00
2022-12-03T21:45:08.280Z,100.00
2022-12-03T21:47:37.652Z,100.00
2022-12-03T21:50:08.255Z,100.00
2022-12-03T21:52:36.982Z,100.00
2022-12-03T21:55:06.360Z,100.00
2022-12-03T21:57:36.707Z,100.00
2022-12-03T22:00:08.855Z,100.00
2022-12-03T22:02:39.577Z,100.00
2022-12-03T22:05:09.138Z,100.00
2022-12-03T22:07:38.532Z,100.00
2022-12-03T22:10:11.995Z,100.00
2022-12-03T22:12:42.110Z,100.00
2022-12-03T22:15:18.382Z,100.00
2022-12-03T22:17:47.865Z,100.00
2022-12-03T22:20:16.867Z,100.00
2022-12-03T22:22:45.376Z,100.00
2022-12-03T22:25:13.882Z,100.00
2022-12-03T22:27:42.359Z,100.00
2022-12-03T22:30:12.888Z,100.00
2022-12-03T22:32:41.482Z,100.00
2022-12-03T22:35:10.409Z,100.00
2022-12-03T22:37:38.915Z,100.00
2022-12-03T22:40:08.425Z,100.00
2022-12-03T22:42:37.002Z,100.00
2022-12-03T22:45:06.371Z,100.00
2022-12-03T22:47:36.264Z,100.00
2022-12-03T22:50:05.007Z,100.00
2022-12-03T22:52:33.627Z,100.00
2022-12-03T22:55:02.112Z,100.00
2022-12-03T22:57:30.588Z,100.00
2022-12-03T22:59:59.142Z,100.00
2022-12-03T23:02:27.891Z,100.00
2022-12-03T23:04:57.985Z,100.00
2022-12-03T23:07:26.532Z,100.00
2022-12-03T23:09:55.565Z,100.00
2022-12-03T23:12:24.219Z,100.00
2022-12-03T23:14:54.210Z,100.00
2022-12-03T23:17:22.742Z,100.00
2022-12-03T23:19:51.577Z,100.00
2022-12-03T23:22:21.532Z,100.00
2022-12-03T23:24:50.042Z,100.00
2022-12-03T23:27:18.576Z,100.00
2022-12-03T23:29:47.184Z,100.00
2022-12-03T23:32:15.692Z,100.00
2022-12-03T23:34:44.446Z,100.00
2022-12-03T23:37:12.991Z,100.00
2022-12-03T23:39:42.914Z,100.00
2022-12-03T23:42:11.498Z,100.00
2022-12-03T23:44:40.040Z,100.00
2022-12-03T23:47:08.625Z,100.00
2022-12-03T23:49:37.402Z,100.00
2022-12-03T23:52:05.932Z,100.00
2022-12-03T23:54:34.468Z,100.00
2022-12-03T23:57:04.703Z,100.00
2022-12-03T23:59:33.368Z,100.00
